Time;durP1;ratioP1;P1;durP2;ratioP2;P2;SDS_P1;SDS_P2;PMS_P1;PMS_P2;Temp;Humidity;BMP_temperature;BMP_pressure;BME280_temperature;BME280_humidity;BME280_pressure;Samples;Min_cycle;Max_cycle;Signal;HPM_P1;HPM_P2
2023/06/21 00:00:33;;;;;;;;;;;20.80;99.90;;;;;;5074841;28;19924;-42
2023/06/21 00:03:00;;;;;;;;;;;20.70;99.90;;;;;;5074190;28;19979;-42
2023/06/21 00:05:27;;;;;;;;;;;20.80;99.90;;;;;;5071873;28;19924;-41
2023/06/21 00:07:54;;;;;;;;;;;20.70;99.90;;;;;;5075174;28;19931;-41
2023/06/21 00:10:23;;;;;;;;;;;20.70;99.90;;;;;;5051293;28;19986;-41
2023/06/21 00:12:50;;;;;;;;;;;20.70;99.90;;;;;;5072894;28;20468;-41
2023/06/21 00:15:18;;;;;;;;;;;20.70;99.90;;;;;;5064105;28;20023;-38
2023/06/21 00:17:44;;;;;;;;;;;20.70;99.90;;;;;;5047785;28;20055;-40
2023/06/21 00:20:12;;;;;;;;;;;20.70;99.90;;;;;;5058947;28;20481;-42
2023/06/21 00:22:38;;;;;;;;;;;20.70;99.90;;;;;;5051786;28;19968;-41
2023/06/21 00:25:06;;;;;;;;;;;20.70;99.90;;;;;;5051893;28;20011;-41
2023/06/21 00:27:32;;;;;;;;;;;20.70;99.90;;;;;;5041224;28;19979;-42
2023/06/21 00:29:59;;;;;;;;;;;20.70;99.90;;;;;;5047660;28;19929;-39
2023/06/21 00:32:27;;;;;;;;;;;20.60;99.90;;;;;;5056980;28;19968;-42
2023/06/21 00:34:54;;;;;;;;;;;20.60;99.90;;;;;;5050692;28;19928;-42
2023/06/21 00:37:20;;;;;;;;;;;20.60;99.90;;;;;;5049958;28;19935;-41
2023/06/21 00:39:47;;;;;;;;;;;20.60;99.90;;;;;;5049678;28;19987;-42
2023/06/21 00:42:13;;;;;;;;;;;20.50;99.90;;;;;;5050147;28;19972;-42
2023/06/21 00:44:40;;;;;;;;;;;20.50;99.90;;;;;;5048507;28;20281;-40
2023/06/21 00:47:07;;;;;;;;;;;20.50;99.90;;;;;;5049422;28;19968;-42
2023/06/21 00:49:35;;;;;;;;;;;20.50;99.90;;;;;;5051200;28;19925;-42
2023/06/21 00:52:02;;;;;;;;;;;20.40;99.90;;;;;;5056566;28;20380;-42
2023/06/21 00:54:30;;;;;;;;;;;20.40;99.90;;;;;;5050006;28;19929;-41
2023/06/21 00:56:57;;;;;;;;;;;20.30;99.90;;;;;;5039859;28;20011;-42
2023/06/21 00:59:27;;;;;;;;;;;20.30;99.90;;;;;;5055015;28;19925;-36
2023/06/21 01:01:55;;;;;;;;;;;20.30;99.90;;;;;;5068202;28;19932;-42
2023/06/21 01:04:21;;;;;;;;;;;20.20;99.90;;;;;;5058208;28;19971;-42
2023/06/21 01:06:51;;;;;;;;;;;20.20;99.90;;;;;;5063657;28;19925;-42
2023/06/21 01:09:22;;;;;;;;;;;20.20;99.90;;;;;;5055020;28;19968;-42
2023/06/21 01:11:51;;;;;;;;;;;20.20;99.90;;;;;;5055088;28;19929;-42
2023/06/21 01:14:20;;;;;;;;;;;20.20;99.90;;;;;;5054152;28;19925;-41
2023/06/21 01:16:47;;;;;;;;;;;20.20;99.90;;;;;;5067198;28;20008;-41
2023/06/21 01:19:16;;;;;;;;;;;20.10;99.90;;;;;;5040708;28;20019;-43
2023/06/21 01:21:43;;;;;;;;;;;20.10;99.90;;;;;;5068335;28;19925;-42
2023/06/21 01:24:16;;;;;;;;;;;20.10;99.90;;;;;;5073657;28;19954;-42
2023/06/21 01:26:47;;;;;;;;;;;20.10;99.90;;;;;;5074893;28;19975;-40
2023/06/21 01:29:16;;;;;;;;;;;20.00;99.90;;;;;;5057548;28;20023;-43
2023/06/21 01:31:43;;;;;;;;;;;20.00;99.90;;;;;;5073482;28;19932;-42
2023/06/21 01:34:09;;;;;;;;;;;20.00;99.90;;;;;;5055917;28;19984;-41
2023/06/21 01:36:37;;;;;;;;;;;19.90;99.90;;;;;;5074496;28;19971;-42
2023/06/21 01:39:05;;;;;;;;;;;19.90;99.90;;;;;;5055501;28;19925;-40
2023/06/21 01:41:31;;;;;;;;;;;19.90;99.90;;;;;;5062803;28;19930;-41
2023/06/21 01:43:58;;;;;;;;;;;19.90;99.90;;;;;;5063930;28;19924;-42
2023/06/21 01:46:26;;;;;;;;;;;19.90;99.90;;;;;;5045192;28;19975;-42
2023/06/21 01:48:53;;;;;;;;;;;19.80;99.90;;;;;;5054045;28;19979;-41
2023/06/21 01:51:19;;;;;;;;;;;19.80;99.90;;;;;;5073675;28;19979;-41
2023/06/21 01:53:46;;;;;;;;;;;19.80;99.90;;;;;;5071583;28;19978;-42
2023/06/21 01:56:14;;;;;;;;;;;19.70;99.90;;;;;;5071203;28;20375;-42
2023/06/21 01:58:41;;;;;;;;;;;19.70;99.90;;;;;;5073870;28;19936;-42
2023/06/21 02:01:08;;;;;;;;;;;19.60;99.90;;;;;;5073475;28;19928;-41
2023/06/21 02:03:38;;;;;;;;;;;19.60;99.90;;;;;;5049518;28;19968;-42
2023/06/21 02:06:05;;;;;;;;;;;19.60;99.90;;;;;;5073400;28;19963;-41
2023/06/21 02:08:32;;;;;;;;;;;19.60;99.90;;;;;;5072338;28;19928;-41
2023/06/21 02:11:00;;;;;;;;;;;19.60;99.90;;;;;;5053983;28;19924;-42
2023/06/21 02:13:27;;;;;;;;;;;19.50;99.90;;;;;;5061742;28;19928;-41
2023/06/21 02:15:53;;;;;;;;;;;19.50;99.90;;;;;;5062759;28;20012;-41
2023/06/21 02:18:21;;;;;;;;;;;19.50;99.90;;;;;;5038216;28;20261;-42
2023/06/21 02:20:49;;;;;;;;;;;19.50;99.90;;;;;;5036219;28;20039;-42
2023/06/21 02:23:16;;;;;;;;;;;19.50;99.90;;;;;;5040785;28;19924;-41
2023/06/21 02:25:42;;;;;;;;;;;19.50;99.90;;;;;;5067218;28;20439;-42
2023/06/21 02:28:09;;;;;;;;;;;19.50;99.90;;;;;;5055135;28;19974;-42
2023/06/21 02:30:35;;;;;;;;;;;19.50;99.90;;;;;;5076135;28;20039;-42
2023/06/21 02:33:02;;;;;;;;;;;19.40;99.90;;;;;;5072844;28;20310;-40
2023/06/21 02:35:29;;;;;;;;;;;19.50;99.90;;;;;;5061757;28;19997;-42
2023/06/21 02:37:57;;;;;;;;;;;19.40;99.90;;;;;;5058836;28;20445;-42
2023/06/21 02:40:23;;;;;;;;;;;19.40;99.90;;;;;;5050191;28;19974;-42
2023/06/21 02:42:50;;;;;;;;;;;19.40;99.90;;;;;;5072126;28;20019;-42
2023/06/21 02:45:17;;;;;;;;;;;19.40;99.90;;;;;;5063175;28;20364;-41
2023/06/21 02:47:43;;;;;;;;;;;19.40;99.90;;;;;;5080088;28;19950;-42
2023/06/21 02:50:10;;;;;;;;;;;19.30;99.90;;;;;;5071908;28;19967;-43
2023/06/21 02:52:37;;;;;;;;;;;19.30;99.90;;;;;;5072158;28;19928;-42
2023/06/21 02:55:07;;;;;;;;;;;19.30;99.90;;;;;;5054810;28;19924;-41
2023/06/21 02:57:33;;;;;;;;;;;19.30;99.90;;;;;;5075386;28;19925;-42
2023/06/21 03:00:00;;;;;;;;;;;19.30;99.90;;;;;;5074532;28;19963;-43
2023/06/21 03:02:33;;;;;;;;;;;19.30;99.90;;;;;;5085226;28;19979;-41
2023/06/21 03:05:00;;;;;;;;;;;19.30;99.90;;;;;;5055080;28;19932;-42
2023/06/21 03:07:27;;;;;;;;;;;19.30;99.90;;;;;;5067612;28;19924;-42
2023/06/21 03:09:54;;;;;;;;;;;19.30;99.90;;;;;;5058858;28;20379;-42
2023/06/21 03:12:21;;;;;;;;;;;19.30;99.90;;;;;;5057137;28;20037;-43
2023/06/21 03:14:48;;;;;;;;;;;19.20;99.90;;;;;;5084587;28;20069;-42
2023/06/21 03:17:15;;;;;;;;;;;19.20;99.90;;;;;;5084532;28;20354;-41
2023/06/21 03:19:42;;;;;;;;;;;19.20;99.90;;;;;;5073216;28;19971;-43
2023/06/21 03:22:08;;;;;;;;;;;19.20;99.90;;;;;;5072350;28;19947;-42
2023/06/21 03:24:35;;;;;;;;;;;19.20;99.90;;;;;;5079180;28;20434;-43
2023/06/21 03:27:02;;;;;;;;;;;19.20;99.90;;;;;;5083252;28;19925;-40
2023/06/21 03:29:30;;;;;;;;;;;19.20;99.90;;;;;;5053105;28;19939;-43
2023/06/21 03:31:57;;;;;;;;;;;19.20;99.90;;;;;;5075874;28;19928;-42
2023/06/21 03:34:23;;;;;;;;;;;19.20;99.90;;;;;;5078489;28;20405;-42
2023/06/21 03:36:53;;;;;;;;;;;19.10;99.90;;;;;;5072489;28;20380;-39
2023/06/21 03:39:19;;;;;;;;;;;19.10;99.90;;;;;;5075965;28;19924;-42
2023/06/21 03:41:46;;;;;;;;;;;19.10;99.90;;;;;;5054105;28;20292;-41
2023/06/21 03:44:13;;;;;;;;;;;19.10;99.90;;;;;;5078770;28;19924;-42
2023/06/21 03:46:40;;;;;;;;;;;19.10;99.90;;;;;;5055594;28;20027;-43
2023/06/21 03:49:07;;;;;;;;;;;19.10;99.90;;;;;;5071485;28;20007;-43
2023/06/21 03:51:34;;;;;;;;;;;19.10;99.90;;;;;;5071685;28;20435;-43
2023/06/21 03:54:00;;;;;;;;;;;19.10;99.90;;;;;;5082327;28;20011;-42
2023/06/21 03:56:28;;;;;;;;;;;19.10;99.90;;;;;;5063836;28;20458;-41
2023/06/21 03:58:54;;;;;;;;;;;19.10;99.90;;;;;;5054031;28;19930;-43
2023/06/21 04:01:22;;;;;;;;;;;19.00;99.90;;;;;;5071541;28;19967;-37
2023/06/21 04:03:50;;;;;;;;;;;19.10;99.90;;;;;;5071787;28;20300;-42
2023/06/21 04:06:17;;;;;;;;;;;19.10;99.90;;;;;;5072354;28;20031;-42
2023/06/21 04:08:43;;;;;;;;;;;19.10;99.90;;;;;;5079473;28;19964;-43
2023/06/21 04:11:10;;;;;;;;;;;19.10;99.90;;;;;;5065179;28;19935;-43
2023/06/21 04:13:37;;;;;;;;;;;19.10;99.90;;;;;;5070296;28;20023;-42
2023/06/21 04:16:03;;;;;;;;;;;19.10;99.90;;;;;;5076455;28;20437;-42
2023/06/21 04:18:30;;;;;;;;;;;19.10;99.90;;;;;;5073047;28;19928;-41
2023/06/21 04:20:58;;;;;;;;;;;19.10;99.90;;;;;;5043087;28;19931;-41
2023/06/21 04:23:26;;;;;;;;;;;19.00;99.90;;;;;;5063969;28;19940;-41
2023/06/21 04:25:52;;;;;;;;;;;19.10;99.90;;;;;;5064631;28;19933;-42
2023/06/21 04:28:25;;;;;;;;;;;19.10;99.90;;;;;;5056009;28;20018;-42
2023/06/21 04:30:51;;;;;;;;;;;19.10;99.90;;;;;;5041603;28;20062;-41
2023/06/21 04:33:18;;;;;;;;;;;19.10;99.90;;;;;;5042516;28;20372;-43
2023/06/21 04:35:45;;;;;;;;;;;19.10;99.90;;;;;;5075622;28;20395;-43
2023/06/21 04:38:13;;;;;;;;;;;19.10;99.90;;;;;;5052291;28;20019;-43
2023/06/21 04:40:40;;;;;;;;;;;19.20;99.90;;;;;;5069554;28;19971;-43
2023/06/21 04:43:06;;;;;;;;;;;19.20;99.90;;;;;;5070203;28;19925;-38
2023/06/21 04:45:33;;;;;;;;;;;19.20;99.90;;;;;;5067363;28;19944;-39
2023/06/21 04:48:00;;;;;;;;;;;19.20;99.90;;;;;;5081707;28;19935;-42
2023/06/21 04:50:26;;;;;;;;;;;19.20;99.90;;;;;;5089989;28;19931;-41
2023/06/21 04:52:57;;;;;;;;;;;19.20;99.90;;;;;;5089943;28;20015;-41
2023/06/21 04:55:26;;;;;;;;;;;19.20;99.90;;;;;;5091311;28;19935;-42
2023/06/21 04:57:52;;;;;;;;;;;19.20;99.90;;;;;;5035018;28;19979;-40
2023/06/21 05:00:19;;;;;;;;;;;19.30;99.90;;;;;;5062537;28;20028;-39
2023/06/21 05:02:46;;;;;;;;;;;19.30;99.90;;;;;;5067584;28;20007;-42
2023/06/21 05:05:12;;;;;;;;;;;19.30;99.90;;;;;;5070069;28;19975;-42
2023/06/21 05:07:39;;;;;;;;;;;19.40;99.90;;;;;;5067092;28;20003;-41
2023/06/21 05:10:07;;;;;;;;;;;19.40;99.90;;;;;;5071449;28;19924;-42
2023/06/21 05:12:35;;;;;;;;;;;19.40;99.90;;;;;;5071010;28;19924;-41
2023/06/21 05:15:01;;;;;;;;;;;19.40;99.90;;;;;;5055027;28;19980;-42
2023/06/21 05:17:28;;;;;;;;;;;19.50;99.90;;;;;;5034790;28;19987;-41
2023/06/21 05:19:55;;;;;;;;;;;19.50;99.90;;;;;;5062673;28;20023;-41
2023/06/21 05:22:21;;;;;;;;;;;19.50;99.90;;;;;;5075387;28;20003;-41
2023/06/21 05:24:48;;;;;;;;;;;19.50;99.90;;;;;;5073321;28;20350;-42
2023/06/21 05:27:14;;;;;;;;;;;19.60;99.90;;;;;;5073674;28;19964;-41
2023/06/21 05:29:42;;;;;;;;;;;19.60;99.90;;;;;;5073543;28;20028;-42
2023/06/21 05:32:10;;;;;;;;;;;19.60;99.90;;;;;;5087743;28;20015;-42
2023/06/21 05:34:36;;;;;;;;;;;19.70;99.90;;;;;;5071661;28;19981;-42
2023/06/21 05:37:03;;;;;;;;;;;19.70;99.90;;;;;;5058946;28;19967;-41
2023/06/21 05:39:29;;;;;;;;;;;19.70;99.90;;;;;;5057239;28;20015;-39
2023/06/21 05:41:56;;;;;;;;;;;19.80;99.90;;;;;;5074622;28;20280;-42
2023/06/21 05:44:23;;;;;;;;;;;19.80;99.90;;;;;;5074637;28;19971;-42
2023/06/21 05:46:51;;;;;;;;;;;19.90;99.90;;;;;;5056843;28;19924;-42
2023/06/21 05:49:18;;;;;;;;;;;20.00;99.90;;;;;;5074846;28;19968;-40
2023/06/21 05:51:44;;;;;;;;;;;20.00;99.90;;;;;;5056915;28;19932;-40
2023/06/21 05:54:11;;;;;;;;;;;20.10;99.90;;;;;;5074535;28;19967;-42
2023/06/21 05:56:38;;;;;;;;;;;20.20;99.90;;;;;;5056706;28;19925;-42
2023/06/21 05:59:04;;;;;;;;;;;20.30;99.90;;;;;;5056821;28;19967;-39
2023/06/21 06:01:31;;;;;;;;;;;20.40;99.90;;;;;;5056607;28;20407;-41
2023/06/21 06:03:59;;;;;;;;;;;20.40;99.90;;;;;;5056460;28;20380;-41
2023/06/21 06:06:33;;;;;;;;;;;20.50;99.90;;;;;;5074465;28;20308;-41
2023/06/21 06:09:00;;;;;;;;;;;20.60;99.90;;;;;;5074380;28;20295;-40
2023/06/21 06:11:26;;;;;;;;;;;20.70;99.90;;;;;;5074139;28;19924;-40
2023/06/21 06:13:53;;;;;;;;;;;20.70;99.90;;;;;;5073918;28;19936;-40
2023/06/21 06:16:20;;;;;;;;;;;20.80;99.90;;;;;;5056721;28;20372;-40
2023/06/21 06:18:46;;;;;;;;;;;20.80;99.90;;;;;;5056606;28;19975;-41
2023/06/21 06:21:14;;;;;;;;;;;20.90;99.90;;;;;;5074246;28;20018;-41
2023/06/21 06:23:41;;;;;;;;;;;20.90;99.90;;;;;;5056539;28;20028;-40
2023/06/21 06:26:08;;;;;;;;;;;20.90;99.90;;;;;;5074000;28;20337;-41
2023/06/21 06:28:34;;;;;;;;;;;21.00;99.90;;;;;;5055934;28;20391;-41
2023/06/21 06:31:01;;;;;;;;;;;21.10;99.90;;;;;;5056199;28;20011;-41
2023/06/21 06:33:27;;;;;;;;;;;21.20;99.90;;;;;;5056258;28;20361;-38
2023/06/21 06:35:54;;;;;;;;;;;21.20;99.90;;;;;;5073799;28;19924;-41
2023/06/21 06:38:22;;;;;;;;;;;21.30;99.90;;;;;;5073809;28;19977;-41
2023/06/21 06:40:49;;;;;;;;;;;21.40;99.90;;;;;;5055690;28;20345;-41
2023/06/21 06:43:15;;;;;;;;;;;21.50;99.90;;;;;;5055972;28;19925;-37
2023/06/21 06:45:42;;;;;;;;;;;21.60;99.90;;;;;;5073967;28;20023;-41
2023/06/21 06:48:08;;;;;;;;;;;21.70;99.90;;;;;;5055913;28;19970;-41
2023/06/21 06:50:36;;;;;;;;;;;21.80;99.90;;;;;;5056113;28;20627;-41
2023/06/21 06:53:04;;;;;;;;;;;21.90;99.90;;;;;;5073326;28;20379;-40
2023/06/21 06:55:32;;;;;;;;;;;22.00;99.90;;;;;;5073568;28;19947;-41
2023/06/21 06:57:59;;;;;;;;;;;22.00;99.90;;;;;;5073436;28;20019;-41
2023/06/21 07:00:25;;;;;;;;;;;22.20;99.90;;;;;;5073446;28;20437;-41
2023/06/21 07:02:56;;;;;;;;;;;22.20;99.90;;;;;;5073568;28;20038;-41
2023/06/21 07:05:23;;;;;;;;;;;22.30;99.90;;;;;;5055894;28;20334;-41
2023/06/21 07:07:49;;;;;;;;;;;22.40;99.90;;;;;;5055644;28;19931;-41
2023/06/21 07:10:16;;;;;;;;;;;22.50;99.90;;;;;;5073288;28;20003;-40
2023/06/21 07:12:44;;;;;;;;;;;22.60;99.90;;;;;;5055538;28;19983;-41
2023/06/21 07:15:10;;;;;;;;;;;22.70;99.90;;;;;;5055877;28;19924;-40
2023/06/21 07:17:37;;;;;;;;;;;22.80;99.90;;;;;;5073382;28;20025;-41
2023/06/21 07:20:06;;;;;;;;;;;22.90;99.90;;;;;;5055565;28;19990;-41
2023/06/21 07:22:33;;;;;;;;;;;23.10;99.90;;;;;;5072854;28;19932;-41
2023/06/21 07:24:59;;;;;;;;;;;23.20;99.90;;;;;;5073144;28;19998;-41
2023/06/21 07:27:27;;;;;;;;;;;23.40;99.90;;;;;;5055241;28;19974;-41
2023/06/21 07:29:55;;;;;;;;;;;23.40;99.90;;;;;;5073254;28;19964;-41
2023/06/21 07:32:22;;;;;;;;;;;23.50;99.90;;;;;;5073136;28;19925;-41
2023/06/21 07:34:49;;;;;;;;;;;23.60;99.90;;;;;;5073226;28;20032;-41
2023/06/21 07:37:15;;;;;;;;;;;23.80;99.90;;;;;;5072622;28;19932;-39
2023/06/21 07:39:42;;;;;;;;;;;23.90;99.90;;;;;;5072890;28;19975;-41
2023/06/21 07:42:09;;;;;;;;;;;24.00;99.90;;;;;;5054916;28;20338;-41
2023/06/21 07:44:35;;;;;;;;;;;24.10;99.90;;;;;;5055256;28;19975;-41
2023/06/21 07:47:03;;;;;;;;;;;24.20;99.90;;;;;;5072843;28;19976;-41
2023/06/21 07:49:30;;;;;;;;;;;24.30;99.90;;;;;;5054924;28;19964;-41
2023/06/21 07:51:56;;;;;;;;;;;24.30;99.90;;;;;;5072539;28;19972;-41
2023/06/21 07:54:23;;;;;;;;;;;24.50;99.90;;;;;;5054701;28;20372;-41
2023/06/21 07:56:50;;;;;;;;;;;24.50;99.90;;;;;;5072321;28;19970;-41
2023/06/21 07:59:17;;;;;;;;;;;24.60;99.90;;;;;;5054497;28;19925;-39
2023/06/21 08:01:43;;;;;;;;;;;24.70;99.90;;;;;;5054821;28;19990;-41
2023/06/21 08:04:11;;;;;;;;;;;24.80;99.90;;;;;;5072495;28;20090;-42
2023/06/21 08:06:38;;;;;;;;;;;25.00;99.90;;;;;;5054446;28;19972;-41
2023/06/21 08:09:04;;;;;;;;;;;25.00;99.90;;;;;;5072232;28;20406;-40
2023/06/21 08:11:31;;;;;;;;;;;25.20;99.90;;;;;;5054446;28;19967;-41
2023/06/21 08:13:58;;;;;;;;;;;25.40;99.90;;;;;;5054515;28;19987;-41
2023/06/21 08:16:24;;;;;;;;;;;25.50;99.90;;;;;;5054626;28;20031;-42
2023/06/21 08:18:51;;;;;;;;;;;25.60;99.90;;;;;;5054474;28;19963;-40
2023/06/21 08:21:19;;;;;;;;;;;25.70;99.90;;;;;;5072236;28;19928;-41
2023/06/21 08:23:46;;;;;;;;;;;25.70;99.90;;;;;;5071956;28;19924;-42
2023/06/21 08:26:12;;;;;;;;;;;25.80;99.90;;;;;;5071905;28;19931;-41
2023/06/21 08:28:39;;;;;;;;;;;25.90;99.90;;;;;;5054302;28;19983;-41
2023/06/21 08:31:05;;;;;;;;;;;25.90;99.70;;;;;;5072102;28;19974;-41
2023/06/21 08:33:32;;;;;;;;;;;25.90;99.90;;;;;;5053967;28;20012;-42
2023/06/21 08:35:59;;;;;;;;;;;26.00;99.70;;;;;;5054244;28;19976;-42
2023/06/21 08:38:27;;;;;;;;;;;26.10;99.90;;;;;;5071898;28;19967;-42
2023/06/21 08:40:53;;;;;;;;;;;26.30;99.90;;;;;;5053908;28;20433;-42
2023/06/21 08:43:20;;;;;;;;;;;26.50;99.30;;;;;;5071734;28;20002;-41
2023/06/21 08:45:46;;;;;;;;;;;26.50;99.30;;;;;;5072134;28;20011;-42
2023/06/21 08:48:13;;;;;;;;;;;26.40;97.30;;;;;;5054010;28;20396;-41
2023/06/21 08:50:40;;;;;;;;;;;26.40;98.90;;;;;;5071869;28;20020;-40
2023/06/21 08:53:07;;;;;;;;;;;26.30;99.30;;;;;;5071790;28;19977;-41
2023/06/21 08:55:35;;;;;;;;;;;26.30;97.80;;;;;;5053703;28;20027;-41
2023/06/21 08:58:03;;;;;;;;;;;26.30;98.80;;;;;;5053485;28;20384;-42
2023/06/21 09:00:29;;;;;;;;;;;26.50;98.70;;;;;;5071842;28;19971;-44
2023/06/21 09:02:57;;;;;;;;;;;26.60;98.50;;;;;;5071688;28;19932;-41
2023/06/21 09:05:24;;;;;;;;;;;26.70;97.50;;;;;;5053936;28;19925;-41
2023/06/21 09:07:51;;;;;;;;;;;26.80;98.10;;;;;;5053889;28;19924;-42
2023/06/21 09:10:20;;;;;;;;;;;26.80;97.30;;;;;;5054046;28;20352;-41
2023/06/21 09:12:49;;;;;;;;;;;26.90;97.50;;;;;;5074273;28;20525;-42
2023/06/21 09:15:15;;;;;;;;;;;27.10;97.90;;;;;;5075427;28;20299;-40
2023/06/21 09:17:42;;;;;;;;;;;27.20;97.90;;;;;;5057960;28;19924;-42
2023/06/21 09:20:10;;;;;;;;;;;27.40;96.80;;;;;;5057719;28;19924;-42
2023/06/21 09:22:36;;;;;;;;;;;27.60;97.40;;;;;;5057151;28;19992;-42
2023/06/21 09:25:03;;;;;;;;;;;27.70;96.10;;;;;;5057354;28;19970;-42
2023/06/21 09:27:30;;;;;;;;;;;27.70;95.20;;;;;;5075329;28;19928;-42
2023/06/21 09:29:58;;;;;;;;;;;27.60;95.90;;;;;;5075271;28;19978;-42
2023/06/21 09:32:24;;;;;;;;;;;27.60;95.60;;;;;;5075250;28;20437;-43
2023/06/21 09:34:51;;;;;;;;;;;27.80;95.90;;;;;;5057142;28;20027;-42
2023/06/21 09:37:33;;;;;;;;;;;27.90;95.20;;;;;;5056953;28;20399;-42
2023/06/21 09:40:00;;;;;;;;;;;27.90;94.90;;;;;;5057231;28;19978;-42
2023/06/21 09:42:28;;;;;;;;;;;27.90;95.30;;;;;;5057310;28;20317;-41
2023/06/21 09:44:55;;;;;;;;;;;28.10;95.50;;;;;;5074958;28;19977;-42
2023/06/21 09:47:22;;;;;;;;;;;28.30;94.80;;;;;;5074914;28;20145;-42
2023/06/21 09:49:49;;;;;;;;;;;28.40;95.00;;;;;;5074871;28;20347;-42
2023/06/21 09:52:17;;;;;;;;;;;28.50;94.20;;;;;;5057137;28;20031;-41
2023/06/21 09:54:44;;;;;;;;;;;28.50;93.10;;;;;;5074722;28;19934;-42
2023/06/21 09:57:10;;;;;;;;;;;28.40;93.90;;;;;;5074751;28;20360;-42
2023/06/21 09:59:37;;;;;;;;;;;28.50;94.10;;;;;;5056751;28;19990;-42
2023/06/21 10:02:04;;;;;;;;;;;28.60;94.40;;;;;;5057010;28;19924;-42
2023/06/21 10:04:32;;;;;;;;;;;28.60;93.90;;;;;;5056601;28;19932;-43
2023/06/21 10:06:59;;;;;;;;;;;28.60;94.30;;;;;;5056612;28;19969;-41
2023/06/21 10:09:25;;;;;;;;;;;28.60;94.10;;;;;;5056365;28;19924;-42
2023/06/21 10:11:54;;;;;;;;;;;28.60;93.50;;;;;;5056567;28;19935;-42
2023/06/21 10:14:21;;;;;;;;;;;28.60;93.80;;;;;;5056484;28;19924;-42
2023/06/21 10:16:51;;;;;;;;;;;28.60;93.70;;;;;;5056545;28;20015;-40
2023/06/21 10:19:18;;;;;;;;;;;28.60;93.90;;;;;;5074113;28;19925;-42
2023/06/21 10:21:46;;;;;;;;;;;28.60;93.80;;;;;;5073857;28;19929;-42
2023/06/21 10:24:14;;;;;;;;;;;28.70;94.20;;;;;;5056159;28;19985;-42
2023/06/21 10:26:41;;;;;;;;;;;28.80;92.50;;;;;;5073182;28;19925;-42
2023/06/21 10:29:08;;;;;;;;;;;28.80;93.30;;;;;;5074194;28;19970;-42
2023/06/21 10:31:34;;;;;;;;;;;28.70;93.20;;;;;;5056267;28;19924;-42
2023/06/21 10:34:01;;;;;;;;;;;28.80;93.40;;;;;;5056159;28;20365;-42
2023/06/21 10:36:31;;;;;;;;;;;28.90;93.00;;;;;;5073647;28;20018;-42
2023/06/21 10:39:00;;;;;;;;;;;29.00;92.50;;;;;;5074006;28;19931;-41
2023/06/21 10:41:26;;;;;;;;;;;29.20;92.20;;;;;;5073712;28;19928;-39
2023/06/21 10:43:53;;;;;;;;;;;29.40;92.20;;;;;;5074098;28;19924;-41
2023/06/21 10:46:20;;;;;;;;;;;29.50;90.30;;;;;;5073538;28;20443;-41
2023/06/21 10:48:46;;;;;;;;;;;29.50;91.70;;;;;;5056016;28;19928;-42
2023/06/21 10:51:13;;;;;;;;;;;29.70;91.40;;;;;;5055853;28;19971;-41
2023/06/21 10:53:40;;;;;;;;;;;29.80;91.00;;;;;;5055932;28;19982;-41
2023/06/21 10:56:10;;;;;;;;;;;30.00;90.70;;;;;;5055578;28;19964;-42
2023/06/21 10:58:37;;;;;;;;;;;30.10;90.20;;;;;;5055850;28;19951;-41
2023/06/21 11:01:04;;;;;;;;;;;30.10;89.80;;;;;;5055794;28;19947;-41
2023/06/21 11:03:30;;;;;;;;;;;30.10;86.80;;;;;;5073445;28;20352;-42
2023/06/21 11:05:57;;;;;;;;;;;30.20;89.00;;;;;;5073270;28;20031;-42
2023/06/21 11:08:31;;;;;;;;;;;30.20;88.90;;;;;;5055566;28;19925;-40
2023/06/21 11:10:57;;;;;;;;;;;30.00;87.50;;;;;;5055692;28;19925;-42
2023/06/21 11:13:34;;;;;;;;;;;30.00;88.70;;;;;;5055797;28;19928;-42
2023/06/21 11:16:09;;;;;;;;;;;30.00;88.90;;;;;;5073052;28;19931;-42
2023/06/21 11:18:35;;;;;;;;;;;30.20;88.10;;;;;;5055276;28;20274;-43
2023/06/21 11:21:04;;;;;;;;;;;30.40;86.50;;;;;;5072776;28;20400;-42
2023/06/21 11:23:31;;;;;;;;;;;30.40;83.90;;;;;;5055419;28;20019;-43
2023/06/21 11:26:12;;;;;;;;;;;30.40;85.00;;;;;;5072850;28;20403;-43
2023/06/21 11:28:44;;;;;;;;;;;30.40;84.50;;;;;;5072284;28;20251;-42
2023/06/21 11:31:13;;;;;;;;;;;30.30;84.10;;;;;;5072689;28;19977;-43
2023/06/21 11:33:46;;;;;;;;;;;30.20;85.90;;;;;;5072576;28;19931;-42
2023/06/21 11:36:13;;;;;;;;;;;30.10;84.60;;;;;;5054483;28;19924;-42
2023/06/21 11:38:48;;;;;;;;;;;30.10;86.30;;;;;;5072801;28;20007;-41
2023/06/21 11:41:29;;;;;;;;;;;30.10;86.70;;;;;;5072525;28;20365;-43
2023/06/21 11:43:57;;;;;;;;;;;30.20;85.20;;;;;;5072550;28;19991;-41
2023/06/21 11:46:24;;;;;;;;;;;30.20;85.30;;;;;;5072570;28;19986;-42
2023/06/21 11:48:52;;;;;;;;;;;30.00;85.70;;;;;;5072671;28;19925;-41
2023/06/21 11:51:19;;;;;;;;;;;29.90;84.80;;;;;;5072521;28;19968;-42
2023/06/21 11:53:47;;;;;;;;;;;29.70;85.30;;;;;;5054643;28;19966;-42
2023/06/21 11:56:16;;;;;;;;;;;29.70;86.30;;;;;;5054351;28;20428;-42
2023/06/21 11:58:43;;;;;;;;;;;30.10;87.40;;;;;;5072493;28;19928;-42
2023/06/21 12:01:12;;;;;;;;;;;30.30;84.10;;;;;;5072533;28;19931;-41
2023/06/21 12:03:39;;;;;;;;;;;30.50;81.80;;;;;;5072396;28;20400;-42
2023/06/21 12:06:06;;;;;;;;;;;30.70;82.00;;;;;;5054528;28;19978;-42
2023/06/21 12:08:33;;;;;;;;;;;30.80;81.60;;;;;;5072046;28;19925;-42
2023/06/21 12:11:00;;;;;;;;;;;30.70;79.50;;;;;;5072069;28;19924;-42
2023/06/21 12:13:26;;;;;;;;;;;30.50;81.00;;;;;;5072258;28;19976;-41
2023/06/21 12:15:53;;;;;;;;;;;30.30;80.00;;;;;;5071778;28;19924;-41
2023/06/21 12:18:21;;;;;;;;;;;30.20;81.00;;;;;;5071987;28;20365;-42
2023/06/21 12:20:48;;;;;;;;;;;30.10;79.50;;;;;;5053773;28;20019;-41
2023/06/21 12:23:15;;;;;;;;;;;30.00;80.40;;;;;;5054529;28;19980;-40
2023/06/21 12:25:43;;;;;;;;;;;30.10;81.00;;;;;;5071791;28;19979;-42
2023/06/21 12:28:11;;;;;;;;;;;30.40;80.10;;;;;;5072083;28;19969;-41
2023/06/21 12:30:46;;;;;;;;;;;30.50;80.30;;;;;;5054143;28;20004;-43
2023/06/21 12:33:12;;;;;;;;;;;30.70;78.20;;;;;;5072177;28;19932;-43
2023/06/21 12:35:40;;;;;;;;;;;30.70;79.90;;;;;;5053802;28;19978;-42
2023/06/21 12:38:10;;;;;;;;;;;30.80;79.70;;;;;;5071836;28;19929;-43
2023/06/21 12:40:37;;;;;;;;;;;30.90;80.60;;;;;;5053894;28;19964;-43
2023/06/21 12:43:04;;;;;;;;;;;31.10;80.70;;;;;;5071892;28;19924;-42
2023/06/21 12:45:30;;;;;;;;;;;31.40;78.30;;;;;;5072463;28;19970;-42
2023/06/21 12:47:57;;;;;;;;;;;31.60;79.40;;;;;;5075881;28;20276;-42
2023/06/21 12:50:24;;;;;;;;;;;31.80;77.00;;;;;;5075912;28;19970;-42
2023/06/21 12:53:00;;;;;;;;;;;31.70;77.40;;;;;;5075664;28;20359;-42
2023/06/21 12:55:27;;;;;;;;;;;31.80;75.50;;;;;;5075629;28;19924;-42
2023/06/21 12:57:53;;;;;;;;;;;31.80;75.60;;;;;;5058135;28;19924;-43
2023/06/21 13:00:20;;;;;;;;;;;31.80;73.90;;;;;;5058137;28;20011;-43
2023/06/21 13:02:47;;;;;;;;;;;31.80;76.50;;;;;;5075687;28;19982;-43
2023/06/21 13:05:13;;;;;;;;;;;32.00;73.10;;;;;;5057783;28;20399;-43
2023/06/21 13:07:40;;;;;;;;;;;32.10;74.50;;;;;;5075473;28;20391;-42
2023/06/21 13:10:08;;;;;;;;;;;31.90;73.30;;;;;;5057875;28;19931;-43
2023/06/21 13:12:38;;;;;;;;;;;31.70;73.40;;;;;;5057834;28;19981;-43
2023/06/21 13:15:05;;;;;;;;;;;31.70;74.50;;;;;;5075239;28;19971;-42
2023/06/21 13:17:31;;;;;;;;;;;31.90;74.60;;;;;;5057658;28;19931;-41
2023/06/21 13:19:58;;;;;;;;;;;31.90;73.60;;;;;;5075274;28;19929;-43
2023/06/21 13:22:25;;;;;;;;;;;32.00;73.00;;;;;;5057274;28;19925;-43
2023/06/21 13:24:51;;;;;;;;;;;32.10;71.80;;;;;;5057703;28;20416;-42
2023/06/21 13:27:20;;;;;;;;;;;32.00;70.40;;;;;;5057524;28;19925;-42
2023/06/21 13:29:47;;;;;;;;;;;31.90;69.00;;;;;;5075415;28;19929;-43
2023/06/21 13:32:14;;;;;;;;;;;31.80;68.70;;;;;;5057355;28;19974;-42
2023/06/21 13:34:40;;;;;;;;;;;31.90;69.00;;;;;;5074964;28;20338;-43
2023/06/21 13:37:07;;;;;;;;;;;32.00;68.20;;;;;;5074676;28;19928;-43
2023/06/21 13:39:34;;;;;;;;;;;32.10;68.50;;;;;;5074930;28;20023;-42
2023/06/21 13:42:01;;;;;;;;;;;32.30;68.40;;;;;;5074723;28;19925;-42
2023/06/21 13:44:28;;;;;;;;;;;32.30;68.00;;;;;;5074808;28;20022;-42
2023/06/21 13:46:55;;;;;;;;;;;32.40;68.60;;;;;;5074681;28;19976;-43
2023/06/21 13:49:22;;;;;;;;;;;32.50;66.90;;;;;;5056667;28;19970;-41
2023/06/21 13:51:48;;;;;;;;;;;32.60;66.70;;;;;;5048788;28;19980;-43
2023/06/21 13:54:15;;;;;;;;;;;32.60;66.10;;;;;;5060349;28;19954;-42
2023/06/21 13:56:42;;;;;;;;;;;32.60;65.50;;;;;;5074405;28;19924;-43
2023/06/21 13:59:08;;;;;;;;;;;32.60;62.40;;;;;;5074045;28;19964;-43
2023/06/21 14:01:36;;;;;;;;;;;32.60;63.80;;;;;;5074485;28;20396;-43
2023/06/21 14:04:03;;;;;;;;;;;32.50;64.30;;;;;;5074584;28;20335;-43
2023/06/21 14:06:30;;;;;;;;;;;32.40;61.80;;;;;;5074339;28;19925;-43
2023/06/21 14:08:56;;;;;;;;;;;32.40;64.00;;;;;;5074675;28;19928;-43
2023/06/21 14:11:23;;;;;;;;;;;32.40;62.80;;;;;;5056933;28;19968;-43
2023/06/21 14:13:50;;;;;;;;;;;32.40;63.50;;;;;;5056889;28;19974;-42
2023/06/21 14:16:16;;;;;;;;;;;32.50;65.70;;;;;;5056323;28;20330;-42